Time;durP1;ratioP1;P1;durP2;ratioP2;P2;SDS_P1;SDS_P2;PMS_P1;PMS_P2;Temp;Humidity;BMP_temperature;BMP_pressure;BME280_temperature;BME280_humidity;BME280_pressure;Samples;Min_cycle;Max_cycle;Signal;HPM_P1;HPM_P2
2024/01/01 00:00:23;;;;;;;5.03;1.90;;;4.20;99.90;;;;;;2044808;28;20224;-66
2024/01/01 00:01:24;;;;;;;3.07;1.27;;;4.20;99.90;;;;;;2046074;28;20282;-67
2024/01/01 00:02:24;;;;;;;3.90;1.50;;;4.20;99.90;;;;;;2047070;28;20781;-67
2024/01/01 00:03:25;;;;;;;3.77;2.10;;;4.20;99.90;;;;;;2044826;28;20242;-67
2024/01/01 00:04:29;;;;;;;4.27;2.37;;;4.30;99.90;;;;;;2046529;28;20254;-67
2024/01/01 00:05:30;;;;;;;4.57;1.88;;;4.20;99.90;;;;;;2045517;28;20243;-67
2024/01/01 00:06:32;;;;;;;2.97;1.50;;;4.30;99.90;;;;;;2043153;28;20791;-67
2024/01/01 00:07:32;;;;;;;3.47;1.40;;;4.30;99.90;;;;;;2044788;28;20231;-67
2024/01/01 00:08:33;;;;;;;2.03;1.20;;;4.40;99.90;;;;;;2045504;28;20323;-67
2024/01/01 00:09:34;;;;;;;3.33;1.03;;;4.40;99.90;;;;;;2044510;28;20278;-67
2024/01/01 00:10:34;;;;;;;3.73;1.30;;;4.40;99.90;;;;;;2046248;28;20327;-67
2024/01/01 00:11:37;;;;;;;3.97;2.10;;;4.40;99.90;;;;;;2046663;28;20286;-67
2024/01/01 00:12:37;;;;;;;5.63;1.40;;;4.50;99.90;;;;;;2042647;28;20732;-67
2024/01/01 00:13:38;;;;;;;1.87;1.27;;;4.50;99.90;;;;;;2034957;28;20237;-67
2024/01/01 00:14:39;;;;;;;3.77;1.50;;;4.40;99.90;;;;;;2042818;28;20288;-67
2024/01/01 00:15:39;;;;;;;6.17;1.60;;;4.40;99.90;;;;;;2046698;28;20274;-67
2024/01/01 00:16:41;;;;;;;3.47;1.87;;;4.30;99.90;;;;;;2046688;28;20235;-67
2024/01/01 00:17:41;;;;;;;3.42;1.30;;;4.30;99.90;;;;;;2037595;29;20326;-67
2024/01/01 00:18:42;;;;;;;4.50;1.37;;;4.40;99.90;;;;;;2037507;29;20232;-67
2024/01/01 00:19:43;;;;;;;4.53;1.97;;;4.40;99.90;;;;;;2044209;28;20234;-67
2024/01/01 00:20:45;;;;;;;4.17;1.60;;;4.40;99.90;;;;;;2037609;28;20225;-67
2024/01/01 00:21:46;;;;;;;4.22;1.80;;;4.40;99.90;;;;;;2044558;28;20276;-67
2024/01/01 00:22:49;;;;;;;11.00;1.65;;;4.50;99.90;;;;;;2044835;28;20236;-67
2024/01/01 00:23:49;;;;;;;4.03;1.30;;;4.50;99.90;;;;;;2044476;28;20232;-67
2024/01/01 00:24:50;;;;;;;2.50;1.60;;;4.50;99.90;;;;;;2044145;28;20245;-67
2024/01/01 00:25:51;;;;;;;6.50;1.47;;;4.50;99.90;;;;;;2035831;29;20774;-66
2024/01/01 00:26:51;;;;;;;4.70;1.40;;;4.40;99.90;;;;;;2043885;28;20239;-67
2024/01/01 00:27:52;;;;;;;3.83;1.27;;;4.40;99.90;;;;;;2044252;28;20231;-67
2024/01/01 00:28:53;;;;;;;3.60;1.10;;;4.30;99.90;;;;;;2043637;28;20235;-67
2024/01/01 00:29:55;;;;;;;4.70;1.30;;;4.40;99.90;;;;;;2043950;28;20684;-67
2024/01/01 00:30:55;;;;;;;3.63;1.30;;;4.40;99.90;;;;;;2047080;28;20628;-67
2024/01/01 00:31:56;;;;;;;2.50;1.23;;;4.40;99.90;;;;;;2046168;28;20247;-67
2024/01/01 00:32:57;;;;;;;2.80;1.63;;;4.30;99.90;;;;;;2046135;28;20314;-67
2024/01/01 00:33:57;;;;;;;3.70;1.90;;;4.30;99.90;;;;;;2046520;28;20662;-67
2024/01/01 00:34:58;;;;;;;3.80;1.40;;;4.30;99.90;;;;;;2045878;28;20231;-67
2024/01/01 00:35:59;;;;;;;2.97;1.03;;;4.30;99.90;;;;;;2044824;28;20212;-67
2024/01/01 00:36:59;;;;;;;20.13;1.63;;;4.40;99.90;;;;;;2044671;28;20596;-67
2024/01/01 00:38:00;;;;;;;5.30;1.97;;;4.40;99.90;;;;;;2044430;28;20231;-67
2024/01/01 00:39:01;;;;;;;5.33;1.00;;;4.50;99.90;;;;;;2045406;28;20211;-67
2024/01/01 00:40:02;;;;;;;3.97;1.53;;;4.50;99.90;;;;;;2043976;28;20191;-67
2024/01/01 00:41:03;;;;;;;3.30;1.40;;;4.50;99.90;;;;;;2043877;28;20231;-67
2024/01/01 00:42:05;;;;;;;3.90;1.33;;;4.50;99.90;;;;;;2043578;28;20211;-67
2024/01/01 00:43:06;;;;;;;4.38;1.40;;;4.40;99.90;;;;;;2043350;28;20211;-67
2024/01/01 00:44:06;;;;;;;4.03;1.10;;;4.20;99.90;;;;;;2043337;28;20215;-67
2024/01/01 00:45:07;;;;;;;3.40;1.20;;;4.20;99.90;;;;;;2044127;28;20619;-66
2024/01/01 00:46:08;;;;;;;4.85;1.10;;;4.20;99.90;;;;;;2053901;28;20648;-67
2024/01/01 00:47:09;;;;;;;3.75;1.15;;;4.20;99.90;;;;;;2045580;28;20758;-66
2024/01/01 00:48:10;;;;;;;4.20;1.53;;;4.30;99.90;;;;;;2046114;28;20215;-68
2024/01/01 00:49:10;;;;;;;0.80;0.70;;;4.40;99.90;;;;;;2046206;28;20188;-68
2024/01/01 00:50:11;;;;;;;3.60;1.60;;;4.40;99.90;;;;;;2045682;28;20183;-67
2024/01/01 00:51:12;;;;;;;5.93;1.37;;;4.40;99.90;;;;;;2045238;28;20192;-67
2024/01/01 00:52:13;;;;;;;4.27;1.10;;;4.30;99.90;;;;;;2044291;28;20711;-67
2024/01/01 00:53:13;;;;;;;7.13;2.07;;;4.30;99.90;;;;;;2046300;28;20295;-67
2024/01/01 00:54:14;;;;;;;3.63;1.17;;;4.30;99.90;;;;;;2046078;28;20319;-68
2024/01/01 00:55:15;;;;;;;4.63;1.10;;;4.20;99.90;;;;;;2043818;28;20182;-68
2024/01/01 00:56:15;;;;;;;3.23;1.10;;;4.20;99.90;;;;;;2038529;29;20180;-68
2024/01/01 00:57:17;;;;;;;5.83;1.30;;;4.30;99.90;;;;;;2044270;28;20191;-68
2024/01/01 00:58:18;;;;;;;3.47;1.17;;;4.30;99.90;;;;;;2050990;28;20183;-68
2024/01/01 00:59:18;;;;;;;4.93;1.70;;;4.30;99.90;;;;;;2042369;28;20262;-68
2024/01/01 01:00:19;;;;;;;5.47;1.53;;;4.20;99.90;;;;;;2048853;28;20206;-68
2024/01/01 01:01:19;;;;;;;4.20;1.87;;;4.20;99.90;;;;;;2046108;28;20275;-68
2024/01/01 01:02:20;;;;;;;3.73;1.70;;;4.10;99.90;;;;;;2046826;28;22139;-68
2024/01/01 01:03:21;;;;;;;5.30;1.50;;;4.10;99.90;;;;;;2045771;28;20243;-68
2024/01/01 01:04:22;;;;;;;4.47;1.60;;;4.10;99.90;;;;;;2044939;28;20231;-68
2024/01/01 01:05:24;;;;;;;9.33;2.17;;;4.10;99.90;;;;;;2044926;28;20231;-68
2024/01/01 01:06:24;;;;;;;3.08;1.45;;;4.00;99.90;;;;;;2052415;28;20686;-67
2024/01/01 01:07:25;;;;;;;3.53;1.30;;;4.00;99.90;;;;;;2044537;28;20318;-68
2024/01/01 01:08:26;;;;;;;4.63;1.40;;;4.10;99.90;;;;;;2043913;28;20824;-68
2024/01/01 01:09:26;;;;;;;4.97;1.60;;;4.10;99.90;;;;;;2043689;28;20701;-68
2024/01/01 01:10:27;;;;;;;4.20;1.53;;;4.10;99.90;;;;;;2035369;28;20263;-68
2024/01/01 01:11:28;;;;;;;2.17;1.07;;;4.10;99.90;;;;;;2042851;28;20725;-68
2024/01/01 01:12:28;;;;;;;3.30;1.23;;;4.10;99.90;;;;;;2042587;28;20240;-68
2024/01/01 01:13:29;;;;;;;4.67;1.43;;;4.10;99.90;;;;;;2042591;28;20244;-68
2024/01/01 01:14:30;;;;;;;5.07;1.50;;;4.20;99.90;;;;;;2046756;28;20286;-68
2024/01/01 01:15:31;;;;;;;3.20;1.27;;;4.20;99.90;;;;;;2046738;28;20226;-68
2024/01/01 01:16:32;;;;;;;5.13;1.40;;;4.30;99.90;;;;;;2045671;28;20687;-68
2024/01/01 01:17:33;;;;;;;1.90;1.03;;;4.30;99.90;;;;;;2042470;28;20366;-68
2024/01/01 01:18:34;;;;;;;2.63;0.90;;;4.40;99.90;;;;;;2045534;28;20297;-68
2024/01/01 01:19:34;;;;;;;2.27;1.07;;;4.40;99.90;;;;;;2046603;28;20242;-68
2024/01/01 01:20:36;;;;;;;2.70;1.30;;;4.40;99.90;;;;;;2046785;28;20682;-68
2024/01/01 01:21:36;;;;;;;2.78;1.10;;;4.40;99.90;;;;;;2046776;28;20267;-68
2024/01/01 01:22:37;;;;;;;3.10;0.90;;;4.30;99.90;;;;;;2044118;28;20314;-68
2024/01/01 01:23:38;;;;;;;2.67;1.20;;;4.30;99.90;;;;;;2045646;28;20339;-68
2024/01/01 01:24:38;;;;;;;4.57;0.90;;;4.20;99.90;;;;;;2038445;28;20231;-68
2024/01/01 01:25:39;;;;;;;3.50;1.47;;;4.20;99.90;;;;;;2038486;28;20323;-68
2024/01/01 01:26:40;;;;;;;1.40;0.70;;;4.20;99.90;;;;;;2042880;28;20323;-68
2024/01/01 01:27:41;;;;;;;1.20;0.93;;;4.10;99.90;;;;;;2042837;28;20697;-68
2024/01/01 01:28:41;;;;;;;2.23;0.90;;;4.10;99.90;;;;;;2042992;28;20236;-68
2024/01/01 01:29:42;;;;;;;2.43;1.07;;;4.10;99.90;;;;;;2046441;28;20223;-68
2024/01/01 01:30:43;;;;;;;3.57;1.20;;;4.10;99.90;;;;;;2046367;28;20291;-68
2024/01/01 01:31:47;;;;;;;1.90;0.80;;;4.10;99.90;;;;;;2045642;28;20239;-68
2024/01/01 01:32:47;;;;;;;2.95;1.08;;;4.00;99.90;;;;;;2040235;28;20244;-68
2024/01/01 01:33:48;;;;;;;2.53;0.87;;;4.00;99.90;;;;;;2047060;28;20655;-68
2024/01/01 01:34:49;;;;;;;3.25;0.90;;;4.00;99.90;;;;;;2046137;28;20226;-68
2024/01/01 01:35:50;;;;;;;2.43;0.90;;;4.10;99.90;;;;;;2038662;28;20247;-68
2024/01/01 01:36:50;;;;;;;2.37;1.20;;;4.00;99.90;;;;;;2044258;28;20239;-68
2024/01/01 01:37:51;;;;;;;3.80;0.90;;;3.90;99.90;;;;;;2044750;28;20607;-68
2024/01/01 01:38:51;;;;;;;3.67;0.80;;;3.90;99.90;;;;;;2043688;28;20271;-68
2024/01/01 01:39:52;;;;;;;2.50;0.80;;;4.00;99.90;;;;;;2044033;28;20287;-68
2024/01/01 01:40:54;;;;;;;3.47;1.10;;;4.00;99.90;;;;;;2044185;28;20234;-68
2024/01/01 01:41:55;;;;;;;2.75;0.80;;;4.00;99.90;;;;;;2043658;28;20231;-68
2024/01/01 01:42:55;;;;;;;2.53;0.83;;;4.00;99.90;;;;;;2042928;28;20282;-68
2024/01/01 01:43:56;;;;;;;1.13;0.63;;;4.00;99.90;;;;;;2043299;28;20247;-68
2024/01/01 01:44:57;;;;;;;3.50;1.30;;;4.00;99.90;;;;;;2046243;28;20246;-68
2024/01/01 01:45:59;;;;;;;4.03;1.53;;;4.00;99.90;;;;;;2046312;28;20306;-68
2024/01/01 01:47:01;;;;;;;2.03;0.80;;;4.00;99.90;;;;;;2042535;28;20215;-68
2024/01/01 01:48:02;;;;;;;2.25;0.80;;;4.10;99.90;;;;;;2036564;28;20693;-68
2024/01/01 01:49:03;;;;;;;2.33;1.03;;;4.00;99.90;;;;;;2036853;29;20312;-68
2024/01/01 01:50:06;;;;;;;2.78;1.30;;;4.00;99.90;;;;;;2036797;29;20255;-68
2024/01/01 01:51:07;;;;;;;1.35;0.70;;;3.90;99.90;;;;;;2036847;28;20193;-68
2024/01/01 01:52:09;;;;;;;3.63;1.08;;;3.90;99.90;;;;;;2036688;28;20657;-68
2024/01/01 01:53:12;;;;;;;2.40;1.00;;;3.90;99.90;;;;;;2036242;29;20220;-68
2024/01/01 01:54:15;;;;;;;2.40;0.80;;;3.90;99.90;;;;;;2043444;28;20234;-68
2024/01/01 01:55:22;;;;;;;2.03;0.80;;;3.80;99.90;;;;;;2043142;28;20218;-68
2024/01/01 01:56:23;;;;;;;1.35;0.80;;;3.80;99.90;;;;;;2030903;29;20247;-68
2024/01/01 01:57:24;;;;;;;3.08;0.80;;;3.80;99.90;;;;;;2036814;29;20608;-68
2024/01/01 01:58:25;;;;;;;2.90;1.00;;;3.80;99.90;;;;;;2042963;28;20243;-68
2024/01/01 01:59:26;;;;;;;2.00;0.90;;;3.80;99.90;;;;;;2045766;28;20775;-68
2024/01/01 02:00:27;;;;;;;1.60;0.70;;;3.80;99.90;;;;;;2045953;28;20231;-68
2024/01/01 02:01:29;;;;;;;1.77;0.80;;;3.80;99.90;;;;;;2045613;28;20227;-68
2024/01/01 02:02:35;;;;;;;4.43;0.98;;;3.80;99.90;;;;;;2044647;28;20238;-68
2024/01/01 02:03:36;;;;;;;2.03;0.70;;;3.80;99.90;;;;;;2044958;28;20779;-68
2024/01/01 02:04:37;;;;;;;1.60;0.60;;;3.80;99.90;;;;;;2046163;28;20231;-68
2024/01/01 02:05:38;;;;;;;2.70;0.80;;;3.80;99.90;;;;;;2037824;29;20232;-68
2024/01/01 02:06:39;;;;;;;1.38;0.93;;;3.80;99.90;;;;;;2042327;28;20239;-68
2024/01/01 02:07:41;;;;;;;1.33;0.77;;;3.80;99.90;;;;;;2043999;28;20219;-68
2024/01/01 02:08:42;;;;;;;1.85;0.80;;;3.70;99.90;;;;;;2045650;28;20242;-68
2024/01/01 02:09:42;;;;;;;1.73;0.63;;;3.70;99.90;;;;;;2046314;28;20233;-67
2024/01/01 02:10:44;;;;;;;1.60;0.80;;;3.70;99.90;;;;;;2043357;28;20236;-68
2024/01/01 02:11:44;;;;;;;7.63;1.00;;;3.70;99.90;;;;;;2042008;28;20291;-68
2024/01/01 02:12:45;;;;;;;2.30;0.70;;;3.70;99.90;;;;;;2041523;28;20648;-68
2024/01/01 02:13:46;;;;;;;1.20;0.80;;;3.60;99.90;;;;;;2043316;28;20645;-68
2024/01/01 02:14:48;;;;;;;1.63;0.75;;;3.60;99.90;;;;;;2047243;28;20591;-68
2024/01/01 02:15:49;;;;;;;1.42;0.50;;;3.50;99.90;;;;;;2045960;28;20310;-68
2024/01/01 02:16:50;;;;;;;2.63;0.80;;;3.50;99.90;;;;;;2038530;29;20233;-68
2024/01/01 02:17:51;;;;;;;3.13;1.20;;;3.40;99.90;;;;;;2046052;28;20333;-68
2024/01/01 02:18:52;;;;;;;1.02;0.80;;;3.30;99.90;;;;;;2046017;28;20267;-68
2024/01/01 02:19:52;;;;;;;2.57;0.80;;;3.20;99.90;;;;;;2035791;29;20238;-68
2024/01/01 02:20:55;;;;;;;3.63;0.90;;;3.20;99.90;;;;;;2047303;28;20231;-68
2024/01/01 02:21:56;;;;;;;3.28;0.65;;;3.30;99.90;;;;;;2044882;28;20226;-68
2024/01/01 02:22:57;;;;;;;5.20;0.98;;;3.20;99.90;;;;;;2044319;28;20227;-68
2024/01/01 02:23:58;;;;;;;3.50;1.20;;;3.20;99.90;;;;;;2044192;28;20309;-68
2024/01/01 02:25:00;;;;;;;1.50;1.00;;;3.20;99.90;;;;;;2044187;28;20229;-68
2024/01/01 02:26:00;;;;;;;1.15;0.65;;;3.20;99.90;;;;;;2051910;28;20215;-68
2024/01/01 02:27:01;;;;;;;1.97;1.23;;;3.10;99.90;;;;;;2042365;28;20270;-68
2024/01/01 02:28:02;;;;;;;0.70;0.60;;;3.10;99.90;;;;;;2044065;28;20198;-68
2024/01/01 02:29:03;;;;;;;1.00;0.67;;;3.10;99.90;;;;;;2044236;28;20221;-68
2024/01/01 02:30:10;;;;;;;3.87;0.80;;;3.10;99.90;;;;;;2046944;28;20282;-68
2024/01/01 02:31:11;;;;;;;1.95;0.80;;;3.10;99.90;;;;;;2046074;28;20680;-68
2024/01/01 02:32:11;;;;;;;1.93;1.10;;;3.00;99.90;;;;;;2046279;28;20230;-68
2024/01/01 02:33:14;;;;;;;5.73;1.07;;;3.00;99.90;;;;;;2046253;28;20245;-68
2024/01/01 02:34:17;;;;;;;2.97;0.90;;;2.90;99.90;;;;;;2047196;28;20221;-68
2024/01/01 02:35:18;;;;;;;3.10;1.02;;;2.90;99.90;;;;;;2038684;29;20192;-68
2024/01/01 02:36:19;;;;;;;2.33;0.90;;;3.00;99.90;;;;;;2045573;28;20205;-69
2024/01/01 02:37:19;;;;;;;1.83;0.70;;;3.00;99.90;;;;;;2053410;28;20183;-68
2024/01/01 02:38:20;;;;;;;2.63;1.20;;;2.90;99.90;;;;;;2043992;28;30119;-68
2024/01/01 02:39:21;;;;;;;2.97;0.60;;;3.00;99.90;;;;;;2044345;28;20245;-68
2024/01/01 02:40:21;;;;;;;1.33;0.87;;;2.90;99.90;;;;;;2035963;28;20249;-69
2024/01/01 02:41:22;;;;;;;1.23;1.00;;;2.90;99.90;;;;;;2027819;29;20331;-68
2024/01/01 02:42:23;;;;;;;2.63;0.73;;;2.90;99.90;;;;;;2035683;28;20249;-69
2024/01/01 02:43:23;;;;;;;1.70;0.77;;;3.00;99.90;;;;;;2042764;28;20374;-69
2024/01/01 02:44:24;;;;;;;3.50;0.90;;;3.00;99.90;;;;;;2046411;28;20326;-69
2024/01/01 02:45:25;;;;;;;2.27;1.43;;;3.00;99.90;;;;;;2047269;28;20941;-69
2024/01/01 02:46:25;;;;;;;2.00;0.80;;;2.90;99.90;;;;;;2038789;29;20239;-68
2024/01/01 02:47:26;;;;;;;5.37;2.03;;;2.90;99.90;;;;;;2036218;29;20294;-69
2024/01/01 02:48:27;;;;;;;1.03;0.80;;;3.00;99.90;;;;;;2044439;28;20248;-69
2024/01/01 02:49:27;;;;;;;0.80;0.70;;;3.00;99.90;;;;;;2028268;29;20236;-69
2024/01/01 02:50:29;;;;;;;1.80;0.70;;;3.00;99.90;;;;;;2028235;29;20236;-69
2024/01/01 02:51:29;;;;;;;5.18;1.20;;;3.00;99.90;;;;;;2045086;28;20242;-69
2024/01/01 02:52:30;;;;;;;2.73;0.50;;;3.00;99.90;;;;;;2044364;28;20234;-69
2024/01/01 02:53:32;;;;;;;1.77;0.97;;;3.00;99.90;;;;;;2036405;28;20235;-69
2024/01/01 02:54:33;;;;;;;2.10;1.17;;;3.00;99.90;;;;;;2042983;28;20640;-69
2024/01/01 02:55:34;;;;;;;1.37;0.67;;;3.00;99.90;;;;;;2035439;28;20248;-69
2024/01/01 02:56:34;;;;;;;1.70;0.70;;;2.90;99.90;;;;;;2035157;28;20236;-69
2024/01/01 02:57:35;;;;;;;1.20;0.63;;;2.90;99.90;;;;;;2043769;28;20234;-69
2024/01/01 02:58:36;;;;;;;0.50;0.50;;;2.90;99.90;;;;;;2043086;28;20239;-69
2024/01/01 02:59:36;;;;;;;0.67;0.60;;;2.90;99.90;;;;;;2045831;28;20235;-69
2024/01/01 03:00:37;;;;;;;1.50;0.60;;;2.90;99.90;;;;;;2046330;28;20829;-69
2024/01/01 03:01:38;;;;;;;1.20;0.63;;;2.80;99.90;;;;;;2036900;29;20227;-68
2024/01/01 03:02:38;;;;;;;3.10;1.10;;;2.80;99.90;;;;;;2035984;29;20261;-69
2024/01/01 03:03:39;;;;;;;1.93;0.70;;;2.80;99.90;;;;;;2035471;28;20295;-69
2024/01/01 03:04:40;;;;;;;3.70;1.40;;;2.80;99.90;;;;;;2030764;29;20310;-69
2024/01/01 03:05:41;;;;;;;1.43;0.90;;;2.80;99.90;;;;;;2039072;28;20267;-69
2024/01/01 03:06:42;;;;;;;1.08;0.60;;;2.80;99.90;;;;;;2035969;28;20231;-69
2024/01/01 03:07:43;;;;;;;2.03;0.97;;;2.80;99.90;;;;;;2043706;28;20688;-69
2024/01/01 03:08:43;;;;;;;2.20;0.87;;;2.70;99.90;;;;;;2047499;28;20234;-68
2024/01/01 03:09:44;;;;;;;4.07;1.07;;;2.70;99.90;;;;;;2045091;28;20246;-69
2024/01/01 03:10:45;;;;;;;6.10;1.27;;;2.70;99.90;;;;;;2043793;28;20236;-69
2024/01/01 03:11:46;;;;;;;1.10;0.70;;;2.60;99.90;;;;;;2051678;28;20724;-69
2024/01/01 03:12:47;;;;;;;2.28;0.75;;;2.60;99.90;;;;;;2051134;28;20329;-68
2024/01/01 03:13:48;;;;;;;1.77;0.70;;;2.70;99.90;;;;;;2042895;28;20228;-68
2024/01/01 03:14:48;;;;;;;1.92;0.80;;;2.70;99.90;;;;;;2038358;29;20237;-68
2024/01/01 03:15:49;;;;;;;1.63;0.87;;;2.70;99.90;;;;;;2039007;29;20242;-69
2024/01/01 03:16:50;;;;;;;2.47;0.67;;;2.80;99.90;;;;;;2046335;28;20234;-68
2024/01/01 03:17:51;;;;;;;3.70;0.80;;;2.80;99.90;;;;;;2045087;28;20598;-68
2024/01/01 03:18:51;;;;;;;3.27;0.93;;;2.90;99.90;;;;;;2043456;28;20235;-69
2024/01/01 03:19:52;;;;;;;2.43;0.80;;;2.90;99.90;;;;;;2045700;28;20222;-68
2024/01/01 03:20:53;;;;;;;3.27;1.00;;;2.90;99.90;;;;;;2043527;28;20710;-68
2024/01/01 03:21:53;;;;;;;7.20;1.57;;;2.90;99.90;;;;;;2044985;28;20247;-68
2024/01/01 03:22:54;;;;;;;2.23;0.80;;;2.90;99.90;;;;;;2043755;28;20255;-69
2024/01/01 03:23:55;;;;;;;3.30;1.07;;;2.90;99.90;;;;;;2035947;29;20235;-69
2024/01/01 03:24:55;;;;;;;2.67;0.90;;;2.80;99.90;;;;;;2044020;28;20322;-68
2024/01/01 03:25:56;;;;;;;2.40;1.50;;;2.90;99.90;;;;;;2043610;28;20702;-68
2024/01/01 03:26:57;;;;;;;1.87;0.80;;;2.90;99.90;;;;;;2043415;28;20317;-68
2024/01/01 03:27:57;;;;;;;1.30;0.70;;;2.90;99.90;;;;;;2043504;28;20728;-68
2024/01/01 03:28:58;;;;;;;3.23;0.83;;;2.90;99.90;;;;;;2042776;28;20639;-68
2024/01/01 03:29:59;;;;;;;2.23;1.13;;;2.80;99.90;;;;;;2046849;28;20222;-68
2024/01/01 03:31:00;;;;;;;2.87;0.77;;;2.80;99.90;;;;;;2047534;28;20686;-68
2024/01/01 03:32:01;;;;;;;1.13;0.70;;;2.80;99.90;;;;;;2045332;28;20215;-68
2024/01/01 03:33:02;;;;;;;2.70;0.90;;;2.80;99.90;;;;;;2043068;28;20277;-68
2024/01/01 03:34:03;;;;;;;2.00;0.63;;;2.70;99.90;;;;;;2035981;29;20217;-68
2024/01/01 03:35:04;;;;;;;6.23;1.57;;;2.70;99.90;;;;;;2036738;29;20194;-68
2024/01/01 03:36:06;;;;;;;2.83;0.80;;;2.60;99.90;;;;;;2045175;28;20700;-68
2024/01/01 03:37:06;;;;;;;2.80;0.80;;;2.60;99.90;;;;;;2036423;29;20201;-68
2024/01/01 03:38:07;;;;;;;1.70;1.10;;;2.60;99.90;;;;;;2036153;28;20249;-68
2024/01/01 03:39:08;;;;;;;3.30;1.35;;;2.70;99.90;;;;;;2035591;28;20536;-68
2024/01/01 03:40:10;;;;;;;3.67;0.83;;;2.60;99.90;;;;;;2043205;28;20202;-68
2024/01/01 03:41:10;;;;;;;1.17;0.80;;;2.70;99.90;;;;;;2042224;28;20183;-68
2024/01/01 03:42:11;;;;;;;2.30;0.90;;;2.70;99.90;;;;;;2042316;28;20216;-68
2024/01/01 03:43:12;;;;;;;3.47;0.90;;;2.70;99.90;;;;;;2042035;28;20696;-67
2024/01/01 03:44:13;;;;;;;2.47;0.93;;;2.70;99.90;;;;;;2035786;28;20191;-67
2024/01/01 03:45:14;;;;;;;4.97;0.90;;;2.70;99.90;;;;;;2036920;28;21003;-68
2024/01/01 03:46:14;;;;;;;2.20;0.73;;;2.70;99.90;;;;;;2043933;28;20198;-68
2024/01/01 03:47:15;;;;;;;3.77;1.00;;;2.70;99.90;;;;;;2042788;28;20565;-68
2024/01/01 03:48:16;;;;;;;2.00;0.80;;;2.60;99.90;;;;;;2044520;28;20191;-68
2024/01/01 03:49:16;;;;;;;2.57;0.93;;;2.60;99.90;;;;;;2045320;28;20249;-67
2024/01/01 03:50:19;;;;;;;3.93;1.13;;;2.60;99.90;;;;;;2044760;28;20188;-68
2024/01/01 03:51:20;;;;;;;2.13;0.80;;;2.60;99.90;;;;;;2044075;28;20233;-67
2024/01/01 03:52:21;;;;;;;2.58;1.40;;;2.60;99.90;;;;;;2043908;28;20246;-68
2024/01/01 03:53:22;;;;;;;2.00;0.90;;;2.60;99.90;;;;;;2043736;28;20234;-68
2024/01/01 03:54:22;;;;;;;4.37;1.43;;;2.60;99.90;;;;;;2043274;28;20756;-68
2024/01/01 03:55:23;;;;;;;2.33;0.90;;;2.50;99.90;;;;;;2043594;28;20313;-68
2024/01/01 03:56:24;;;;;;;2.83;1.03;;;2.70;99.90;;;;;;2043765;28;20652;-68
2024/01/01 03:57:24;;;;;;;2.33;0.90;;;2.60;99.90;;;;;;2042392;28;20242;-67
2024/01/01 03:58:25;;;;;;;1.93;0.73;;;2.60;99.90;;;;;;2041655;28;20255;-67
2024/01/01 03:59:26;;;;;;;4.87;1.37;;;2.60;99.90;;;;;;2046464;28;20226;-68
2024/01/01 04:00:26;;;;;;;3.93;1.47;;;2.60;99.90;;;;;;2046559;28;20723;-68
2024/01/01 04:01:27;;;;;;;3.77;0.77;;;2.60;99.90;;;;;;2045955;28;20259;-68
2024/01/01 04:02:28;;;;;;;4.03;1.20;;;2.60;99.90;;;;;;2044574;28;20254;-68
2024/01/01 04:03:29;;;;;;;3.90;1.00;;;2.60;99.90;;;;;;2044798;28;20416;-68
2024/01/01 04:04:30;;;;;;;5.15;1.27;;;2.70;99.90;;;;;;2045377;28;20285;-68
2024/01/01 04:05:31;;;;;;;3.67;0.93;;;2.70;99.90;;;;;;2045412;28;20650;-68
2024/01/01 04:06:32;;;;;;;3.90;1.30;;;2.60;99.90;;;;;;2044881;28;20223;-67
2024/01/01 04:07:34;;;;;;;2.63;1.10;;;2.60;99.90;;;;;;2043775;28;20297;-67
2024/01/01 04:08:35;;;;;;;6.32;1.40;;;2.70;99.90;;;;;;2035532;28;20236;-67
2024/01/01 04:09:35;;;;;;;7.27;1.17;;;2.60;99.90;;;;;;2034649;28;20232;-68
2024/01/01 04:10:36;;;;;;;4.83;1.40;;;2.70;99.90;;;;;;2043294;28;20240;-68
2024/01/01 04:11:38;;;;;;;4.97;1.63;;;2.70;99.90;;;;;;2034857;29;20229;-68
2024/01/01 04:12:39;;;;;;;1.77;1.10;;;2.80;99.90;;;;;;2034363;29;20330;-67
2024/01/01 04:13:40;;;;;;;2.47;0.90;;;2.80;99.90;;;;;;2045499;28;20668;-67
2024/01/01 04:14:41;;;;;;;3.13;1.20;;;2.70;99.90;;;;;;2043489;28;20262;-67
2024/01/01 04:15:42;;;;;;;3.97;1.10;;;2.70;99.90;;;;;;2026079;29;20237;-68
2024/01/01 04:16:43;;;;;;;4.97;0.97;;;2.70;99.90;;;;;;2037522;29;20232;-67
2024/01/01 04:17:43;;;;;;;5.60;1.57;;;2.80;99.90;;;;;;2044252;28;20266;-67
2024/01/01 04:18:44;;;;;;;3.40;1.30;;;2.80;99.90;;;;;;2042722;28;20228;-67
2024/01/01 04:19:47;;;;;;;1.93;1.00;;;2.70;99.90;;;;;;2044396;28;20332;-67
2024/01/01 04:20:47;;;;;;;3.78;1.17;;;2.70;99.90;;;;;;2044132;28;20231;-67
2024/01/01 04:21:48;;;;;;;4.13;1.00;;;2.80;99.90;;;;;;2034849;29;20229;-67
2024/01/01 04:22:51;;;;;;;4.50;1.10;;;2.90;99.90;;;;;;2034697;29;20241;-67
2024/01/01 04:23:54;;;;;;;2.78;1.20;;;2.90;99.90;;;;;;2050176;28;20265;-67
2024/01/01 04:24:54;;;;;;;3.03;1.40;;;2.90;99.90;;;;;;2042478;28;20307;-68
2024/01/01 04:25:55;;;;;;;3.67;1.20;;;2.90;99.90;;;;;;2042429;28;20668;-67
2024/01/01 04:26:56;;;;;;;2.03;1.00;;;2.90;99.90;;;;;;2041790;28;20275;-68
2024/01/01 04:27:56;;;;;;;4.47;1.13;;;2.90;99.90;;;;;;2041765;28;20267;-68
2024/01/01 04:28:57;;;;;;;3.83;1.20;;;2.80;99.90;;;;;;2045295;28;20398;-68
2024/01/01 04:29:58;;;;;;;5.40;1.63;;;2.80;99.90;;;;;;2037217;29;20220;-68
2024/01/01 04:30:58;;;;;;;4.10;1.17;;;2.80;99.90;;;;;;2030397;29;20234;-67
2024/01/01 04:31:59;;;;;;;1.90;1.00;;;2.70;99.90;;;;;;2041418;28;20243;-68
2024/01/01 04:33:00;;;;;;;3.87;1.10;;;2.70;99.90;;;;;;2043480;28;20230;-68
2024/01/01 04:34:01;;;;;;;10.13;1.40;;;2.70;99.90;;;;;;2043235;28;20722;-68
2024/01/01 04:35:03;;;;;;;5.43;2.07;;;2.70;99.90;;;;;;2044283;28;20200;-68
2024/01/01 04:36:04;;;;;;;6.68;1.55;;;2.70;99.90;;;;;;2041485;28;20180;-67
2024/01/01 04:37:04;;;;;;;4.47;1.17;;;2.60;99.90;;;;;;2043209;28;20186;-67
2024/01/01 04:38:05;;;;;;;4.03;1.30;;;2.60;99.90;;;;;;2043792;28;20702;-67
2024/01/01 04:39:06;;;;;;;2.10;1.00;;;2.50;99.90;;;;;;2042866;28;20274;-67
2024/01/01 04:40:07;;;;;;;2.47;1.07;;;2.50;99.90;;;;;;2042564;28;20172;-67
2024/01/01 04:41:09;;;;;;;1.83;0.70;;;2.60;99.90;;;;;;2042013;28;20711;-68
2024/01/01 04:42:09;;;;;;;2.92;1.08;;;2.50;99.90;;;;;;2041650;28;20269;-68
2024/01/01 04:43:10;;;;;;;2.67;1.37;;;2.50;99.90;;;;;;2034699;29;20223;-68
2024/01/01 04:44:11;;;;;;;2.63;1.20;;;2.50;99.90;;;;;;2046535;28;20679;-67
2024/01/01 04:45:12;;;;;;;8.43;1.77;;;2.50;99.90;;;;;;2045605;28;20666;-67
2024/01/01 04:46:13;;;;;;;4.45;1.42;;;2.60;99.90;;;;;;2045130;28;20191;-66
2024/01/01 04:47:14;;;;;;;2.43;1.13;;;2.70;99.90;;;;;;2045509;28;20322;-68
2024/01/01 04:48:15;;;;;;;4.60;1.30;;;2.70;99.90;;;;;;2044655;28;20195;-67
2024/01/01 04:49:16;;;;;;;2.58;1.00;;;2.80;99.90;;;;;;2044431;28;20187;-67
2024/01/01 04:50:16;;;;;;;3.23;0.90;;;2.80;99.90;;;;;;2044881;28;20190;-67
2024/01/01 04:51:17;;;;;;;2.83;1.13;;;2.80;99.90;;;;;;2044414;28;20186;-67
2024/01/01 04:52:18;;;;;;;3.23;1.27;;;2.70;99.90;;;;;;2042896;28;20605;-67
2024/01/01 04:53:18;;;;;;;4.03;1.40;;;2.60;99.90;;;;;;2042637;28;20210;-67
2024/01/01 04:54:19;;;;;;;3.10;1.13;;;2.60;99.90;;;;;;2035133;29;20217;-67
2024/01/01 04:55:20;;;;;;;2.13;0.90;;;2.50;99.90;;;;;;2034126;29;20699;-68
2024/01/01 04:56:23;;;;;;;5.03;1.40;;;2.50;99.90;;;;;;2035193;28;20246;-67
2024/01/01 04:57:23;;;;;;;3.78;1.00;;;2.50;99.90;;;;;;2042200;28;20244;-67
2024/01/01 04:58:24;;;;;;;3.73;1.07;;;2.40;99.90;;;;;;2044772;28;20273;-68
2024/01/01 04:59:25;;;;;;;1.97;0.80;;;2.50;99.90;;;;;;2045681;28;20707;-67
2024/01/01 05:00:26;;;;;;;4.93;1.43;;;2.50;99.90;;;;;;2037547;29;20238;-68
2024/01/01 05:01:27;;;;;;;2.13;0.90;;;2.40;99.90;;;;;;2044392;28;20617;-67
2024/01/01 05:02:27;;;;;;;1.65;0.98;;;2.40;99.90;;;;;;2044334;28;20755;-68
2024/01/01 05:03:28;;;;;;;4.60;1.00;;;2.40;99.90;;;;;;2044096;28;20301;-67
2024/01/01 05:04:29;;;;;;;3.93;1.07;;;2.40;99.90;;;;;;2044675;28;20271;-67
2024/01/01 05:05:29;;;;;;;3.47;1.20;;;2.50;99.90;;;;;;2044468;28;20262;-67
2024/01/01 05:06:30;;;;;;;3.93;0.97;;;2.60;99.90;;;;;;2043880;28;20261;-67
2024/01/01 05:07:31;;;;;;;4.10;1.37;;;2.60;99.90;;;;;;2042705;28;20639;-67
2024/01/01 05:08:32;;;;;;;3.10;1.03;;;2.70;99.90;;;;;;2042301;28;20272;-67
2024/01/01 05:09:33;;;;;;;2.95;1.35;;;2.60;99.90;;;;;;2042100;28;20238;-67
2024/01/01 05:10:33;;;;;;;4.30;0.90;;;2.60;99.90;;;;;;2042524;28;20270;-67
2024/01/01 05:11:40;;;;;;;4.03;1.10;;;2.50;99.90;;;;;;2042358;28;20270;-67
2024/01/01 05:12:41;;;;;;;3.38;0.90;;;2.50;99.90;;;;;;2038696;28;20295;-67
2024/01/01 05:13:42;;;;;;;3.97;1.25;;;2.40;99.90;;;;;;2037524;28;20257;-67
2024/01/01 05:14:42;;;;;;;2.10;0.80;;;2.50;99.90;;;;;;2045234;28;20786;-67
2024/01/01 05:15:43;;;;;;;3.37;1.03;;;2.50;99.90;;;;;;2045666;28;20262;-67
2024/01/01 05:16:46;;;;;;;3.50;1.57;;;2.50;99.90;;;;;;2045024;28;20783;-67
2024/01/01 05:17:47;;;;;;;3.42;0.77;;;2.50;99.90;;;;;;2044722;28;20231;-67
2024/01/01 05:18:48;;;;;;;4.03;1.20;;;2.50;99.90;;;;;;2045836;28;20234;-68
2024/01/01 05:19:50;;;;;;;5.97;1.37;;;2.50;99.90;;;;;;2044992;28;20683;-67
2024/01/01 05:20:50;;;;;;;5.82;1.40;;;2.60;99.90;;;;;;2045982;28;20652;-67
2024/01/01 05:21:51;;;;;;;4.30;1.07;;;2.60;99.90;;;;;;2045725;28;20222;-67